Time;durP1;ratioP1;P1;durP2;ratioP2;P2;SDS_P1;SDS_P2;PMS_P1;PMS_P2;Temp;Humidity;BMP_temperature;BMP_pressure;BME280_temperature;BME280_humidity;BME280_pressure;Samples;Min_cycle;Max_cycle;Signal;HPM_P1;HPM_P2
2022/02/10 00:16:10;;;;;;;10.13;7.87;;;;;;;2.41;100.00;98911.19;5052153;28;20285;-74
2022/02/10 00:21:27;;;;;;;13.07;8.77;;;;;;;2.34;100.00;98899.16;5048542;28;20571;-75
2022/02/10 00:24:13;;;;;;;11.90;8.00;;;;;;;2.37;100.00;98906.94;5052262;28;20241;-74
2022/02/10 00:35:01;;;;;;;13.00;8.30;;;;;;;2.33;100.00;98900.06;5050118;28;20224;-74
2022/02/10 00:37:37;;;;;;;12.27;8.60;;;;;;;2.28;100.00;98894.09;5046449;28;20589;-74
2022/02/10 00:40:11;;;;;;;11.67;7.70;;;;;;;2.26;100.00;98889.84;5051960;28;20210;-73
2022/02/10 00:42:38;;;;;;;10.27;8.40;;;;;;;2.24;100.00;98892.47;5051589;28;20221;-73
2022/02/10 00:45:05;;;;;;;15.97;8.67;;;;;;;2.22;100.00;98888.19;5051748;28;20228;-74
2022/02/10 00:47:47;;;;;;;10.23;8.10;;;;;;;2.19;100.00;98891.72;5051881;28;20592;-75
2022/02/10 00:50:13;;;;;;;12.50;8.70;;;;;;;2.15;100.00;98897.91;5049596;28;20308;-75
2022/02/10 00:52:42;;;;;;;12.57;8.70;;;;;;;2.12;100.00;98892.78;5051565;28;20245;-75
2022/02/10 00:55:09;;;;;;;11.77;8.50;;;;;;;2.12;100.00;98895.38;5046054;28;20208;-76
2022/02/10 00:57:36;;;;;;;11.33;8.10;;;;;;;2.11;100.00;98891.06;5052138;28;20212;-74
2022/02/10 01:00:23;;;;;;;11.80;8.50;;;;;;;2.08;100.00;98885.91;5051666;28;20230;-74
2022/02/10 01:11:29;;;;;;;12.93;8.53;;;;;;;1.94;100.00;98877.56;5051723;28;20314;-74
2022/02/10 01:14:02;;;;;;;13.73;8.40;;;;;;;1.94;100.00;98872.34;5051544;28;20208;-73
2022/02/10 01:30:07;;;;;;;12.17;8.70;;;;;;;1.90;100.00;98860.28;5051406;28;20219;-74
2022/02/10 01:32:34;;;;;;;12.00;8.23;;;;;;;1.91;100.00;98872.41;5054030;28;20260;-75
2022/02/10 01:35:05;;;;;;;9.90;7.80;;;;;;;1.89;100.00;98858.56;5055445;28;20221;-75
2022/02/10 01:37:31;;;;;;;11.10;8.33;;;;;;;1.87;100.00;98860.34;5055406;28;20669;-75
2022/02/10 01:40:07;;;;;;;11.83;8.33;;;;;;;1.85;100.00;98863.88;5055314;28;20219;-75
2022/02/10 02:04:30;;;;;;;11.70;8.57;;;;;;;1.70;100.00;98831.22;5054538;28;20302;-74
2022/02/10 02:06:58;;;;;;;12.37;8.60;;;;;;;1.68;100.00;98838.22;5054841;28;20218;-74
2022/02/10 02:09:24;;;;;;;11.57;8.83;;;;;;;1.61;100.00;98831.41;5054656;28;20214;-74
2022/02/10 02:11:53;;;;;;;14.70;9.50;;;;;;;1.60;100.00;98829.69;5049714;28;20245;-74
2022/02/10 02:14:21;;;;;;;11.20;8.33;;;;;;;1.61;100.00;98825.38;5054375;28;20700;-73
2022/02/10 02:16:50;;;;;;;12.57;8.70;;;;;;;1.63;100.00;98818.34;5054451;28;20213;-74
2022/02/10 02:19:17;;;;;;;13.07;9.33;;;;;;;1.60;100.00;98814.06;5054433;28;20700;-74
2022/02/10 02:21:44;;;;;;;12.97;8.20;;;;;;;1.61;100.00;98804.53;5052916;28;20221;-74
2022/02/10 02:24:19;;;;;;;11.87;8.77;;;;;;;1.58;100.00;98799.38;5054625;28;20209;-74
2022/02/10 02:26:46;;;;;;;11.00;8.47;;;;;;;1.58;100.00;98800.22;5054522;28;20216;-74
2022/02/10 02:29:15;;;;;;;12.30;8.97;;;;;;;1.60;100.00;98789.78;5054484;28;20317;-74
2022/02/10 02:31:46;;;;;;;11.47;8.33;;;;;;;1.50;100.00;98783.06;5054115;28;20821;-74
2022/02/10 03:04:57;;;;;;;11.93;8.57;;;;;;;1.43;100.00;98774.56;5053618;28;20714;-74
2022/02/10 03:10:29;;;;;;;11.30;8.17;;;;;;;1.41;100.00;98776.31;5047560;28;20248;-74
2022/02/10 03:12:57;;;;;;;9.80;7.80;;;;;;;1.46;100.00;98771.00;5047020;28;20273;-74
2022/02/10 03:15:29;;;;;;;9.73;7.30;;;;;;;1.48;100.00;98772.69;5053150;28;20666;-74
2022/02/10 03:18:12;;;;;;;10.73;7.87;;;;;;;1.48;100.00;98772.69;5053191;28;20697;-73
2022/02/10 03:20:52;;;;;;;10.57;7.53;;;;;;;1.52;100.00;98779.53;5053293;28;20630;-74
2022/02/10 04:02:42;;;;;;;10.17;7.17;;;;;;;1.27;100.00;98786.19;5047882;28;20224;-74
2022/02/10 04:05:32;;;;;;;7.93;6.43;;;;;;;1.24;100.00;98780.19;5051579;28;20626;-74
2022/02/10 04:08:04;;;;;;;9.80;7.17;;;;;;;1.17;100.00;98784.66;5047033;28;20591;-74
2022/02/10 04:10:59;;;;;;;12.10;6.83;;;;;;;1.18;100.00;98783.78;5052624;28;20374;-74
2022/02/10 04:13:38;;;;;;;8.80;7.03;;;;;;;1.18;100.00;98786.38;5052449;28;20243;-74
2022/02/10 04:16:12;;;;;;;10.70;6.93;;;;;;;1.26;100.00;98781.88;5049125;28;20223;-74
2022/02/10 04:19:25;;;;;;;10.50;7.67;;;;;;;1.22;100.00;98788.03;5052535;28;20231;-74
2022/02/10 04:21:52;;;;;;;8.60;6.83;;;;;;;1.25;100.00;98785.38;5046591;28;20216;-74
2022/02/10 04:24:32;;;;;;;10.63;6.93;;;;;;;1.27;100.00;98794.00;5052130;28;20217;-74
2022/02/10 04:27:05;;;;;;;11.03;7.23;;;;;;;1.25;100.00;98784.50;5047546;28;20666;-74
2022/02/10 04:29:50;;;;;;;7.70;6.47;;;;;;;1.21;100.00;98783.72;5046507;28;20213;-75
2022/02/10 04:32:34;;;;;;;9.37;6.83;;;;;;;1.16;100.00;98785.56;5046392;28;20240;-75
2022/02/10 04:38:27;;;;;;;9.37;7.00;;;;;;;1.16;100.00;98775.16;5051747;28;20222;-75
2022/02/10 04:57:34;;;;;;;10.50;6.23;;;;;;;1.04;100.00;98757.19;5046206;28;20219;-74
2022/02/10 05:00:16;;;;;;;8.83;6.33;;;;;;;1.01;100.00;98754.69;5048061;28;20214;-74
2022/02/10 05:06:09;;;;;;;7.23;6.33;;;;;;;1.09;100.00;98747.56;5051317;28;20760;-75
2022/02/10 05:12:21;;;;;;;8.20;6.23;;;;;;;1.18;100.00;98747.34;5051492;28;20245;-76
2022/02/10 05:17:21;;;;;;;7.50;5.50;;;;;;;1.38;100.00;98739.06;5042415;28;20268;-75
2022/02/10 05:20:04;;;;;;;6.83;5.10;;;;;;;1.39;100.00;98738.19;5051249;28;20346;-74
2022/02/10 05:22:43;;;;;;;7.97;5.63;;;;;;;1.47;100.00;98750.13;5051408;28;20221;-75
2022/02/10 05:33:38;;;;;;;6.40;5.10;;;;;;;1.68;100.00;98736.59;5048309;28;20279;-75
2022/02/10 05:36:08;;;;;;;9.83;5.10;;;;;;;1.78;100.00;98734.63;5051322;28;20224;-75
2022/02/10 05:38:39;;;;;;;9.50;5.80;;;;;;;1.85;100.00;98725.75;5051135;28;20270;-75
2022/02/10 05:44:22;;;;;;;6.43;5.17;;;;;;;1.84;100.00;98730.09;5051259;28;20262;-75
2022/02/10 05:47:08;;;;;;;7.10;5.03;;;;;;;1.86;100.00;98724.84;5051334;28;20224;-74
2022/02/10 05:50:26;;;;;;;7.47;5.03;;;;;;;1.88;100.00;98734.34;5046823;28;20217;-75
2022/02/10 05:53:15;;;;;;;5.27;4.27;;;;;;;1.92;100.00;98738.59;5044735;28;20287;-74
2022/02/10 05:55:49;;;;;;;8.83;5.90;;;;;;;1.85;100.00;98731.81;5048214;28;20229;-74
2022/02/10 05:58:24;;;;;;;9.83;5.60;;;;;;;1.83;100.00;98733.59;5051037;28;20761;-74
2022/02/10 06:48:32;;;;;;;8.27;5.20;;;;;;;1.52;100.00;98753.50;5054197;28;20258;-74
2022/02/10 06:51:11;;;;;;;6.83;5.00;;;;;;;1.51;100.00;98761.34;5053680;28;20251;-74
2022/02/10 06:53:48;;;;;;;7.73;5.27;;;;;;;1.50;100.00;98760.50;5054030;28;20643;-73
2022/02/10 06:56:42;;;;;;;9.27;6.13;;;;;;;1.49;100.00;98758.78;5053910;28;20555;-74
2022/02/10 07:02:53;;;;;;;9.13;6.10;;;;;;;1.48;100.00;98757.06;4991031;28;20218;-74
2022/02/10 07:08:46;;;;;;;10.50;6.43;;;;;;;1.48;100.00;98759.66;4989864;28;20865;-75
2022/02/10 07:11:26;;;;;;;11.03;6.53;;;;;;;1.48;100.00;98764.88;4987904;28;20242;-74
2022/02/10 07:14:17;;;;;;;7.93;6.10;;;;;;;1.52;100.00;98757.81;5035269;28;20243;-75
2022/02/10 07:17:16;;;;;;;8.73;6.07;;;;;;;1.50;100.00;98754.41;5047972;28;20212;-75
2022/02/10 07:50:16;;;;;;;9.90;7.07;;;;;;;2.52;100.00;98726.50;5042344;28;20215;-75
2022/02/10 07:58:37;;;;;;;9.77;6.50;;;;;;;2.74;100.00;98732.84;5041752;28;20223;-75
2022/02/10 08:57:04;;;;;;;9.13;5.53;;;;;;;5.13;100.00;98754.34;5087515;28;20677;-75
2022/02/10 09:02:54;;;;;;;8.73;5.47;;;;;;;5.37;100.00;98752.59;5084748;28;20219;-75
2022/02/10 09:05:35;;;;;;;9.87;4.83;;;;;;;5.49;99.49;98752.94;5088942;28;20301;-76
2022/02/10 09:13:57;;;;;;;6.63;2.93;;;;;;;6.75;93.28;98747.63;5084805;28;20375;-75
2022/02/10 09:17:06;;;;;;;8.97;3.37;;;;;;;7.29;88.38;98755.66;5088989;28;20211;-75
2022/02/10 09:19:55;;;;;;;4.80;3.00;;;;;;;7.64;86.27;98750.44;5085840;28;20287;-76
2022/02/10 09:58:25;;;;;;;4.03;2.80;;;;;;;9.85;72.96;98765.94;5082873;28;20651;-77
2022/02/10 10:01:15;;;;;;;6.53;3.73;;;;;;;9.90;71.89;98773.63;5088378;28;20607;-77
2022/02/10 10:03:45;;;;;;;6.60;3.90;;;;;;;9.81;72.62;98774.13;5084330;28;20742;-78
2022/02/10 10:06:16;;;;;;;5.10;3.20;;;;;;;9.67;73.78;98781.97;5074279;28;20224;-78
2022/02/10 10:08:55;;;;;;;7.10;3.80;;;;;;;9.63;74.54;98785.72;5074253;28;20218;-77
2022/02/10 10:14:22;;;;;;;4.10;3.33;;;;;;;9.76;74.78;98786.72;5037497;28;20390;-82
2022/02/10 10:17:13;;;;;;;5.27;3.47;;;;;;;9.84;74.36;98790.66;5072604;28;20302;-81
2022/02/10 10:19:51;;;;;;;5.63;3.77;;;;;;;9.83;75.13;98788.09;5069454;28;20224;-81
2022/02/10 10:22:45;;;;;;;6.67;3.87;;;;;;;9.84;74.49;98781.91;5069862;28;20215;-82
2022/02/10 10:25:52;;;;;;;5.47;4.10;;;;;;;10.02;74.47;98786.13;5070717;28;20227;-82
2022/02/10 10:51:22;;;;;;;8.00;4.03;;;;;;;10.18;72.96;98768.50;5073401;28;20214;-80
2022/02/10 10:53:55;;;;;;;6.23;4.13;;;;;;;10.10;75.33;98768.09;5069314;28;20249;-81
2022/02/10 10:56:26;;;;;;;7.93;4.23;;;;;;;10.00;75.55;98758.94;5067774;28;20221;-80
2022/02/10 10:59:15;;;;;;;6.63;3.83;;;;;;;9.88;76.03;98757.00;5073471;28;20297;-79
2022/02/10 11:39:37;;;;;;;8.60;5.47;;;;;;;9.77;77.57;98733.84;5072193;28;20222;-79
2022/02/10 11:42:41;;;;;;;8.10;5.30;;;;;;;9.78;78.54;98734.72;5071651;28;20222;-79
2022/02/10 12:43:41;;;;;;;12.10;7.00;;;;;;;8.95;87.12;98754.28;5071467;28;20241;-75
2022/02/10 14:10:02;;;;;;;11.17;6.20;;;;;;;7.94;91.89;98766.50;5073403;28;20303;-72
2022/02/10 14:12:49;;;;;;;8.77;5.60;;;;;;;7.98;91.80;98768.06;5069937;28;20674;-73
2022/02/10 14:15:27;;;;;;;10.47;6.73;;;;;;;7.93;91.74;98770.94;5072762;28;20296;-73
2022/02/10 14:18:06;;;;;;;8.40;6.17;;;;;;;7.84;92.38;98765.28;5072777;28;20217;-75
2022/02/10 14:20:49;;;;;;;12.00;6.27;;;;;;;7.76;92.90;98762.13;5073957;28;20219;-74
2022/02/10 14:25:39;;;;;;;10.57;6.57;;;;;;;7.70;92.79;98778.22;5073909;28;20243;-76
2022/02/10 14:26:16;;;;;;;12.60;6.63;;;;;;;7.65;93.04;98774.97;5073937;28;20216;-76
2022/02/10 14:28:44;;;;;;;9.73;6.33;;;;;;;7.66;93.41;98776.66;5068975;28;20247;-76
2022/02/10 14:31:10;;;;;;;8.87;6.17;;;;;;;7.70;93.12;98783.47;5074014;28;20215;-76
2022/02/10 14:33:39;;;;;;;9.47;6.10;;;;;;;7.65;92.92;98783.69;5073805;28;20235;-76
2022/02/10 14:36:11;;;;;;;9.20;6.57;;;;;;;7.66;92.40;98784.56;5073976;28;20215;-79
2022/02/10 14:38:47;;;;;;;10.37;6.27;;;;;;;7.61;92.71;98779.53;5074016;28;20215;-78
2022/02/10 14:41:46;;;;;;;10.57;6.43;;;;;;;7.57;91.98;98784.97;5068771;28;20298;-78
2022/02/10 15:18:13;;;;;;;9.87;6.83;;;;;;;7.33;96.82;98778.22;5008355;28;20403;-80
2022/02/10 15:54:04;;;;;;;9.73;7.20;;;;;;;7.08;97.16;98772.38;5064875;28;20357;-79
2022/02/10 16:10:55;;;;;;;11.70;7.30;;;;;;;7.17;96.92;98777.25;5068657;28;20217;-79
2022/02/10 16:18:51;;;;;;;7.57;6.37;;;;;;;7.17;96.41;98765.88;5066457;28;20219;-79
2022/02/10 16:21:29;;;;;;;9.97;5.83;;;;;;;7.11;94.93;98767.00;5072033;28;20587;-81
2022/02/10 16:24:02;;;;;;;9.57;5.23;;;;;;;7.01;95.30;98770.97;5071860;28;20211;-79
2022/02/10 16:26:39;;;;;;;7.60;5.33;;;;;;;7.05;94.82;98762.03;5071687;28;20219;-79
2022/02/10 16:29:06;;;;;;;6.83;5.40;;;;;;;6.99;93.20;98757.03;5071802;28;20291;-79
2022/02/10 16:31:32;;;;;;;6.10;4.60;;;;;;;7.01;91.93;98759.63;5070092;28;20230;-80
2022/02/10 16:33:59;;;;;;;7.47;4.80;;;;;;;6.99;91.04;98759.69;5070837;28;20230;-82
2022/02/10 16:36:30;;;;;;;5.77;4.10;;;;;;;7.00;89.63;98758.75;5071066;28;20216;-77
2022/02/10 16:38:58;;;;;;;5.33;4.00;;;;;;;6.99;89.25;98762.31;5070972;28;20214;-76
2022/02/10 16:41:24;;;;;;;5.90;3.93;;;;;;;7.03;88.23;98758.59;5070663;28;20222;-77
2022/02/10 16:43:51;;;;;;;7.23;3.60;;;;;;;7.11;86.93;98760.88;5063204;28;20208;-80
2022/02/10 16:46:17;;;;;;;4.53;3.03;;;;;;;7.05;86.10;98762.03;5071645;28;20215;-78
2022/02/10 16:48:44;;;;;;;4.90;3.50;;;;;;;7.10;87.90;98759.19;5071787;28;20216;-77
2022/02/10 16:51:11;;;;;;;4.80;3.30;;;;;;;7.16;85.71;98749.25;5071628;28;20219;-77
2022/02/10 16:53:42;;;;;;;6.53;3.40;;;;;;;7.19;85.86;98743.84;5071621;28;20247;-76
2022/02/10 16:56:14;;;;;;;4.00;3.33;;;;;;;7.18;84.94;98745.59;5071260;28;20299;-77
2022/02/10 16:58:46;;;;;;;4.10;3.10;;;;;;;7.19;83.54;98746.47;5069883;28;20265;-77
2022/02/10 17:01:38;;;;;;;5.37;3.27;;;;;;;7.20;83.81;98750.78;5071095;28;20219;-77
2022/02/10 17:20:43;;;;;;;3.73;2.70;;;;;;;7.32;82.16;98771.28;5066173;28;20218;-76
2022/02/10 17:26:05;;;;;;;3.77;3.37;;;;;;;7.34;82.57;98774.69;5073471;28;20218;-75
2022/02/10 17:28:34;;;;;;;3.67;3.17;;;;;;;7.33;82.77;98779.09;5075284;28;20223;-76
2022/02/10 17:31:22;;;;;;;5.50;3.10;;;;;;;7.32;81.95;98776.53;5067943;28;20700;-76
2022/02/10 17:34:13;;;;;;;4.03;3.30;;;;;;;7.42;83.01;98777.81;5074879;28;20247;-76
2022/02/10 17:36:48;;;;;;;4.90;2.97;;;;;;;7.34;82.37;98774.69;5073582;28;20246;-76
2022/02/10 17:42:17;;;;;;;4.30;3.50;;;;;;;7.33;82.67;98772.97;5071708;28;20307;-76
2022/02/10 17:44:54;;;;;;;4.03;3.10;;;;;;;7.30;82.52;98768.69;5074837;28;20615;-74
2022/02/10 17:53:01;;;;;;;3.83;3.40;;;;;;;7.31;83.20;98769.56;5068040;28;20242;-75
2022/02/10 17:55:27;;;;;;;4.40;3.40;;;;;;;7.37;83.64;98777.19;5069228;28;20674;-75
2022/02/10 17:57:54;;;;;;;4.70;3.77;;;;;;;7.34;84.01;98774.69;5071861;28;20218;-74
2022/02/10 18:00:25;;;;;;;5.30;3.80;;;;;;;7.30;85.29;98773.13;5072268;28;20672;-75
2022/02/10 18:02:55;;;;;;;3.97;3.20;;;;;;;7.29;85.46;98769.63;5070737;28;20212;-75
2022/02/10 18:05:53;;;;;;;3.97;3.40;;;;;;;7.30;85.10;98773.97;5067866;28;20216;-75
2022/02/10 18:08:19;;;;;;;5.07;3.37;;;;;;;7.29;84.57;98780.16;5073473;28;20347;-74
2022/02/10 18:13:36;;;;;;;4.23;3.37;;;;;;;7.23;84.31;98761.19;5071874;28;20234;-75
2022/02/10 18:16:11;;;;;;;4.60;3.00;;;;;;;7.21;84.15;98756.94;5072974;28;20606;-75
2022/02/10 18:18:41;;;;;;;4.90;3.37;;;;;;;7.20;84.57;98758.69;5070275;28;20220;-75
2022/02/10 18:21:24;;;;;;;3.83;2.83;;;;;;;7.17;85.24;98750.94;5070474;28;20211;-75
2022/02/10 18:24:05;;;;;;;4.20;2.90;;;;;;;7.18;84.60;98767.56;5072415;28;20207;-75
2022/02/10 18:26:54;;;;;;;4.63;3.00;;;;;;;7.20;83.95;98765.75;5069309;28;20219;-75
2022/02/10 18:29:34;;;;;;;4.50;2.87;;;;;;;7.20;83.58;98761.31;5071745;28;20564;-75
2022/02/10 19:07:51;;;;;;;3.97;3.40;;;;;;;6.30;88.23;98759.25;5069446;28;20228;-74
2022/02/10 19:10:20;;;;;;;4.13;3.10;;;;;;;6.19;89.72;98762.34;5068838;28;20219;-75
2022/02/10 19:12:51;;;;;;;5.60;3.77;;;;;;;6.16;90.70;98767.72;5073240;28;20220;-75
2022/02/10 19:15:21;;;;;;;5.03;4.13;;;;;;;6.02;92.23;98759.56;5068423;28;20322;-75
2022/02/10 19:17:48;;;;;;;5.50;3.40;;;;;;;5.91;93.19;98758.28;5071211;28;20550;-75
2022/02/10 19:20:19;;;;;;;5.17;3.43;;;;;;;5.84;92.93;98755.06;5071868;28;20211;-74
2022/02/10 19:22:46;;;;;;;4.03;3.33;;;;;;;5.74;92.03;98755.47;5071902;28;20239;-75
2022/02/10 19:25:13;;;;;;;4.63;3.83;;;;;;;5.61;93.22;98757.72;5072729;28;20219;-76
2022/02/10 19:27:43;;;;;;;4.93;3.83;;;;;;;5.62;92.80;98748.94;5072776;28;20223;-76
2022/02/10 19:30:11;;;;;;;5.40;3.80;;;;;;;5.66;91.65;98749.66;5069965;28;20298;-76
2022/02/10 19:32:42;;;;;;;4.97;3.80;;;;;;;5.65;91.69;98748.81;5072951;28;20588;-76
2022/02/10 19:35:11;;;;;;;4.67;3.53;;;;;;;5.60;92.54;98742.91;5072582;28;20242;-76
2022/02/10 19:37:39;;;;;;;5.70;3.80;;;;;;;5.55;92.19;98742.22;5071879;28;20215;-75
2022/02/10 19:40:07;;;;;;;5.07;3.77;;;;;;;5.48;93.29;98746.00;5072645;28;20506;-76
2022/02/10 19:42:36;;;;;;;5.20;4.30;;;;;;;5.52;92.71;98747.59;5071068;28;20226;-75
2022/02/10 19:45:05;;;;;;;5.93;4.10;;;;;;;5.64;91.87;98739.25;5072556;28;20251;-78
2022/02/10 19:47:35;;;;;;;6.70;4.00;;;;;;;5.50;94.13;98736.31;5072607;28;20219;-76
2022/02/10 19:50:08;;;;;;;6.60;4.77;;;;;;;5.61;94.15;98730.66;5072252;28;20222;-77
2022/02/10 19:52:37;;;;;;;6.60;4.60;;;;;;;5.67;94.53;98736.50;5064969;28;20277;-75
2022/02/10 19:55:08;;;;;;;5.47;4.17;;;;;;;5.76;94.53;98724.78;5072315;28;20242;-76
2022/02/10 19:57:37;;;;;;;4.13;3.70;;;;;;;5.90;94.07;98718.09;5071970;28;20216;-77
2022/02/10 20:00:08;;;;;;;5.43;4.20;;;;;;;5.92;93.95;98711.00;5068772;28;20214;-78
2022/02/10 20:02:34;;;;;;;6.23;3.33;;;;;;;5.86;94.26;98720.91;5072392;28;20215;-76
2022/02/10 20:05:00;;;;;;;3.43;3.13;;;;;;;5.91;94.34;98714.53;5072089;28;20672;-75
2022/02/10 20:07:27;;;;;;;5.80;3.00;;;;;;;5.91;94.30;98719.78;5071790;28;20222;-76
2022/02/10 20:09:53;;;;;;;5.80;3.57;;;;;;;5.87;94.84;98723.44;5070390;28;20211;-76
2022/02/10 20:12:22;;;;;;;4.23;3.10;;;;;;;5.92;94.36;98726.75;5068603;28;20218;-76
2022/02/10 20:14:51;;;;;;;4.43;3.50;;;;;;;5.94;93.54;98724.94;5069422;28;20228;-79
2022/02/10 20:17:18;;;;;;;4.30;3.13;;;;;;;6.02;93.10;98722.81;5068317;28;20212;-77
2022/02/10 20:19:44;;;;;;;3.97;2.93;;;;;;;6.14;92.84;98724.94;5065496;28;20214;-77
2022/02/10 20:22:13;;;;;;;4.40;2.93;;;;;;;6.23;92.58;98731.56;5069440;28;20211;-74
2022/02/10 20:24:39;;;;;;;5.33;3.23;;;;;;;6.26;92.08;98718.31;5064545;28;20278;-75
2022/02/10 20:27:06;;;;;;;5.30;3.10;;;;;;;6.26;92.66;98716.53;5053128;28;20213;-74
2022/02/10 20:29:34;;;;;;;4.07;3.00;;;;;;;6.18;93.19;98715.16;5067553;28;20211;-74
2022/02/10 20:32:01;;;;;;;3.70;2.90;;;;;;;6.16;92.89;98715.22;5070303;28;20226;-77
2022/02/10 20:34:29;;;;;;;3.03;2.73;;;;;;;6.21;92.36;98712.38;5070516;28;20242;-76
2022/02/10 20:36:57;;;;;;;3.90;3.10;;;;;;;6.23;92.73;98700.91;5069693;28;20218;-76
2022/02/10 20:39:27;;;;;;;4.40;3.30;;;;;;;6.36;91.95;98696.84;5069911;28;20777;-75
2022/02/10 20:43:37;;;;;;;4.90;3.40;;;;;;;6.40;91.66;98701.03;5108621;27;20421;-74
2022/02/10 20:46:07;;;;;;;4.87;3.77;;;;;;;6.37;92.54;98700.31;5089122;28;20210;-72
2022/02/10 20:48:36;;;;;;;5.77;3.93;;;;;;;6.38;92.54;98700.25;5088307;28;20260;-72
2022/02/10 20:51:06;;;;;;;4.50;3.50;;;;;;;6.39;93.49;98701.09;5088929;28;20217;-73
2022/02/10 20:53:34;;;;;;;4.27;3.30;;;;;;;6.40;93.42;98705.47;5088001;28;20215;-76
2022/02/10 20:56:02;;;;;;;5.27;3.63;;;;;;;6.38;93.54;98705.53;5088254;28;20224;-75
2022/02/10 20:58:30;;;;;;;4.90;3.60;;;;;;;6.32;94.30;98684.78;5088763;28;20225;-74
2022/02/10 21:01:00;;;;;;;5.20;4.30;;;;;;;6.13;95.05;98689.13;5088895;28;20648;-75
2022/02/10 21:03:30;;;;;;;6.67;5.20;;;;;;;6.05;95.50;98696.44;5085601;28;20238;-75
2022/02/10 21:06:05;;;;;;;6.90;4.37;;;;;;;6.13;95.47;98685.63;5089629;28;20250;-72
2022/02/10 21:08:38;;;;;;;7.23;5.10;;;;;;;6.22;94.58;98683.47;5089652;28;20213;-74
2022/02/10 21:11:05;;;;;;;6.63;5.87;;;;;;;6.30;94.36;98681.34;5090622;28;20246;-74
2022/02/10 21:13:33;;;;;;;7.20;4.67;;;;;;;6.36;93.64;98675.84;5089238;28;20222;-73
2022/02/10 21:16:01;;;;;;;5.87;4.60;;;;;;;6.43;92.71;98681.69;5089166;28;20249;-74
2022/02/10 21:18:28;;;;;;;6.40;4.60;;;;;;;6.52;92.23;98679.50;5089297;28;20244;-74
2022/02/10 21:20:59;;;;;;;5.23;4.23;;;;;;;6.57;91.59;98684.53;5089842;28;20211;-73
2022/02/10 21:23:30;;;;;;;5.00;4.17;;;;;;;6.58;91.63;98675.72;5089090;28;20234;-73
2022/02/10 21:25:57;;;;;;;4.73;4.10;;;;;;;6.62;91.28;98672.94;5088959;28;20638;-73
2022/02/10 21:28:28;;;;;;;4.50;3.67;;;;;;;6.61;91.52;98665.97;5088980;28;20600;-74
2022/02/10 21:30:57;;;;;;;4.50;3.60;;;;;;;6.66;91.35;98682.34;5086881;28;20207;-74
2022/02/10 21:33:30;;;;;;;4.00;3.60;;;;;;;6.66;91.35;98671.84;5089173;28;20223;-75
2022/02/10 21:38:52;;;;;;;5.50;3.80;;;;;;;6.73;90.69;98675.06;5082692;28;20273;-75
2022/02/10 21:52:56;;;;;;;5.20;3.63;;;;;;;6.76;91.60;98659.16;5108196;28;20306;-73
2022/02/10 21:55:42;;;;;;;5.97;3.90;;;;;;;6.76;92.16;98654.75;5085384;28;20590;-73
2022/02/10 22:07:05;;;;;;;6.40;4.00;;;;;;;6.81;91.18;98637.00;5068927;28;20315;-74
2022/02/10 22:09:46;;;;;;;5.60;3.30;;;;;;;6.82;91.32;98628.22;5094723;28;20240;-73
2022/02/10 22:20:44;;;;;;;5.70;3.70;;;;;;;6.91;91.35;98624.31;5109367;27;20569;-74
2022/02/10 22:23:18;;;;;;;4.23;3.37;;;;;;;6.93;91.46;98636.44;5107587;28;20214;-73
2022/02/10 22:25:44;;;;;;;5.27;4.43;;;;;;;6.91;91.70;98629.56;5109276;28;20267;-75
2022/02/10 22:28:24;;;;;;;7.00;5.13;;;;;;;6.81;93.47;98626.50;5109497;28;20243;-73
2022/02/10 22:30:58;;;;;;;6.80;5.13;;;;;;;6.82;94.93;98628.22;5109389;28;20297;-73
2022/02/10 22:33:34;;;;;;;7.77;4.63;;;;;;;6.80;94.63;98619.56;5108874;28;20293;-73
2022/02/10 22:36:03;;;;;;;6.07;4.40;;;;;;;6.83;94.31;98624.66;5107142;28;20680;-73
2022/02/10 22:38:30;;;;;;;5.10;4.13;;;;;;;6.83;94.05;98626.44;5108990;28;20242;-73
2022/02/10 22:41:03;;;;;;;6.47;4.77;;;;;;;6.85;93.43;98628.06;5108945;28;20689;-73
2022/02/10 22:43:29;;;;;;;6.57;4.67;;;;;;;6.87;92.56;98625.34;5109111;28;20679;-73
2022/02/10 22:45:56;;;;;;;4.83;4.27;;;;;;;6.86;92.48;98626.28;5108826;28;20671;-73
2022/02/10 22:48:23;;;;;;;5.37;4.20;;;;;;;6.89;92.43;98621.75;5109386;28;20217;-73
2022/02/10 22:50:49;;;;;;;5.50;3.80;;;;;;;6.88;92.24;98621.81;5107386;28;20207;-73
2022/02/10 22:53:17;;;;;;;6.73;4.27;;;;;;;6.89;92.51;98623.53;5108846;28;20210;-73
2022/02/10 22:55:44;;;;;;;4.90;3.83;;;;;;;6.92;92.78;98628.63;5108929;28;20211;-74
2022/02/10 22:58:10;;;;;;;5.90;4.30;;;;;;;6.93;91.91;98625.94;5109001;28;20222;-74
2022/02/10 23:00:46;;;;;;;6.17;4.57;;;;;;;6.91;91.96;98622.50;5108556;28;20230;-74
2022/02/10 23:03:13;;;;;;;5.57;4.00;;;;;;;6.95;91.49;98621.44;5108570;28;20214;-75
2022/02/10 23:05:39;;;;;;;6.00;4.07;;;;;;;6.91;92.56;98616.41;5108243;28;20221;-74
2022/02/10 23:08:06;;;;;;;5.53;3.97;;;;;;;6.95;92.41;98612.75;5108339;28;20206;-74
2022/02/10 23:10:45;;;;;;;5.73;4.63;;;;;;;7.01;93.06;98609.81;5108753;28;20217;-73
2022/02/10 23:13:13;;;;;;;5.07;3.77;;;;;;;7.02;92.48;98614.97;5107730;28;20214;-72
2022/02/10 23:15:40;;;;;;;5.80;4.40;;;;;;;6.98;93.04;98608.19;5106783;28;20209;-73
2022/02/10 23:18:08;;;;;;;5.00;4.00;;;;;;;7.02;92.40;98609.72;5108218;28;20218;-73
2022/02/10 23:20:35;;;;;;;5.37;4.20;;;;;;;7.03;92.09;98611.41;5108090;28;20619;-74
2022/02/10 23:23:03;;;;;;;4.77;3.70;;;;;;;7.06;91.92;98599.91;5107674;28;20213;-73
2022/02/10 23:25:30;;;;;;;4.73;3.93;;;;;;;7.01;91.89;98602.78;5108099;28;20675;-74
2022/02/10 23:27:58;;;;;;;7.13;4.37;;;;;;;6.99;93.30;98603.75;5107957;28;20297;-73
2022/02/10 23:30:25;;;;;;;5.47;4.50;;;;;;;7.04;92.20;98607.03;5102901;28;20218;-73
2022/02/10 23:32:55;;;;;;;7.50;5.33;;;;;;;7.01;92.71;98613.28;5094137;28;20595;-73
2022/02/10 23:36:00;;;;;;;5.43;4.60;;;;;;;7.01;92.55;98612.44;5094473;28;20453;-73
2022/02/10 23:38:14;;;;;;;6.53;4.50;;;;;;;7.01;91.49;98615.91;5094191;28;20299;-74
2022/02/10 23:41:01;;;;;;;4.87;3.87;;;;;;;7.03;90.67;98614.03;5094464;28;20687;-74
2022/02/10 23:43:28;;;;;;;5.10;4.00;;;;;;;7.02;91.47;98604.47;5082446;28;20299;-75
2022/02/10 23:45:55;;;;;;;5.37;4.33;;;;;;;7.06;90.69;98606.03;5094437;28;20570;-75
2022/02/10 23:48:21;;;;;;;5.67;3.90;;;;;;;7.06;90.38;98605.16;5094219;28;20303;-74
2022/02/10 23:50:48;;;;;;;4.83;3.80;;;;;;;7.09;90.19;98608.50;5094354;28;20216;-75
2022/02/10 23:53:14;;;;;;;4.27;3.70;;;;;;;7.10;89.34;98609.38;5094347;28;20211;-74
2022/02/10 23:55:41;;;;;;;4.87;3.50;;;;;;;7.12;89.73;98615.38;5094096;28;20394;-73
2022/02/10 23:58:19;;;;;;;6.77;4.10;;;;;;;7.15;90.06;98610.00;5093790;28;20211;-74
